sensor_id;sensor_type;location;lat;lon;timestamp;P1;durP1;ratioP1;P2;durP2;ratioP2
23747;SDS011;12054;53.662;10.126;2022-10-28T00:02:22;7.53;;;4.40;;
23747;SDS011;12054;53.662;10.126;2022-10-28T00:04:47;6.88;;;4.55;;
23747;SDS011;12054;53.662;10.126;2022-10-28T00:07:12;7.22;;;4.50;;
23747;SDS011;12054;53.662;10.126;2022-10-28T00:09:38;7.15;;;4.85;;
23747;SDS011;12054;53.662;10.126;2022-10-28T00:12:04;9.20;;;4.57;;
23747;SDS011;12054;53.662;10.126;2022-10-28T00:14:29;7.40;;;5.18;;
23747;SDS011;12054;53.662;10.126;2022-10-28T00:16:56;10.07;;;5.20;;
23747;SDS011;12054;53.662;10.126;2022-10-28T00:19:21;5.93;;;4.38;;
23747;SDS011;12054;53.662;10.126;2022-10-28T00:21:47;7.35;;;4.47;;
23747;SDS011;12054;53.662;10.126;2022-10-28T00:24:12;6.75;;;4.53;;
23747;SDS011;12054;53.662;10.126;2022-10-28T00:26:39;8.32;;;4.38;;
23747;SDS011;12054;53.662;10.126;2022-10-28T00:29:12;9.38;;;4.65;;
23747;SDS011;12054;53.662;10.126;2022-10-28T00:31:41;9.55;;;5.03;;
23747;SDS011;12054;53.662;10.126;2022-10-28T00:34:16;7.10;;;5.10;;
23747;SDS011;12054;53.662;10.126;2022-10-28T00:36:43;6.47;;;4.68;;
23747;SDS011;12054;53.662;10.126;2022-10-28T00:41:41;8.32;;;4.57;;
23747;SDS011;12054;53.662;10.126;2022-10-28T00:50:22;8.02;;;4.78;;
23747;SDS011;12054;53.662;10.126;2022-10-28T00:52:52;9.00;;;4.60;;
23747;SDS011;12054;53.662;10.126;2022-10-28T00:55:20;9.57;;;4.60;;
23747;SDS011;12054;53.662;10.126;2022-10-28T00:57:46;5.53;;;4.45;;
23747;SDS011;12054;53.662;10.126;2022-10-28T01:00:13;8.20;;;4.13;;
23747;SDS011;12054;53.662;10.126;2022-10-28T01:02:44;9.15;;;4.93;;
23747;SDS011;12054;53.662;10.126;2022-10-28T01:05:12;8.18;;;5.10;;
23747;SDS011;12054;53.662;10.126;2022-10-28T01:07:41;8.70;;;4.63;;
23747;SDS011;12054;53.662;10.126;2022-10-28T01:10:07;5.82;;;4.50;;
23747;SDS011;12054;53.662;10.126;2022-10-28T01:15:46;7.03;;;4.88;;
23747;SDS011;12054;53.662;10.126;2022-10-28T01:18:42;7.72;;;4.95;;
23747;SDS011;12054;53.662;10.126;2022-10-28T01:27:03;8.35;;;5.07;;
23747;SDS011;12054;53.662;10.126;2022-10-28T01:35:19;7.40;;;4.82;;
23747;SDS011;12054;53.662;10.126;2022-10-28T01:37:58;7.85;;;4.82;;
23747;SDS011;12054;53.662;10.126;2022-10-28T01:41:09;7.82;;;4.78;;
23747;SDS011;12054;53.662;10.126;2022-10-28T01:43:49;7.13;;;4.70;;
23747;SDS011;12054;53.662;10.126;2022-10-28T01:49:22;8.07;;;5.57;;
23747;SDS011;12054;53.662;10.126;2022-10-28T01:51:54;9.75;;;4.82;;
23747;SDS011;12054;53.662;10.126;2022-10-28T01:54:23;8.93;;;4.72;;
23747;SDS011;12054;53.662;10.126;2022-10-28T01:56:51;10.63;;;5.30;;
23747;SDS011;12054;53.662;10.126;2022-10-28T01:59:21;9.38;;;5.10;;
23747;SDS011;12054;53.662;10.126;2022-10-28T02:01:48;7.10;;;4.93;;
23747;SDS011;12054;53.662;10.126;2022-10-28T02:04:14;8.45;;;5.00;;
23747;SDS011;12054;53.662;10.126;2022-10-28T02:06:41;7.35;;;4.63;;
23747;SDS011;12054;53.662;10.126;2022-10-28T02:12:32;7.53;;;4.20;;
23747;SDS011;12054;53.662;10.126;2022-10-28T02:20:26;6.70;;;4.30;;
23747;SDS011;12054;53.662;10.126;2022-10-28T02:23:06;7.30;;;4.65;;
23747;SDS011;12054;53.662;10.126;2022-10-28T02:26:05;5.97;;;3.60;;
23747;SDS011;12054;53.662;10.126;2022-10-28T02:28:47;6.95;;;3.17;;
23747;SDS011;12054;53.662;10.126;2022-10-28T02:31:25;5.18;;;3.88;;
23747;SDS011;12054;53.662;10.126;2022-10-28T02:34:04;8.10;;;4.32;;
23747;SDS011;12054;53.662;10.126;2022-10-28T02:36:34;7.07;;;4.15;;
23747;SDS011;12054;53.662;10.126;2022-10-28T02:39:03;6.80;;;3.80;;
23747;SDS011;12054;53.662;10.126;2022-10-28T02:41:53;7.32;;;3.60;;
23747;SDS011;12054;53.662;10.126;2022-10-28T02:44:27;5.88;;;2.78;;
23747;SDS011;12054;53.662;10.126;2022-10-28T02:46:58;5.10;;;3.03;;
23747;SDS011;12054;53.662;10.126;2022-10-28T02:49:25;8.43;;;3.67;;
23747;SDS011;12054;53.662;10.126;2022-10-28T02:51:59;6.28;;;4.05;;
23747;SDS011;12054;53.662;10.126;2022-10-28T02:54:29;4.75;;;4.00;;
23747;SDS011;12054;53.662;10.126;2022-10-28T02:56:58;5.95;;;3.80;;
23747;SDS011;12054;53.662;10.126;2022-10-28T02:59:28;4.45;;;3.80;;
23747;SDS011;12054;53.662;10.126;2022-10-28T03:01:54;8.02;;;4.13;;
23747;SDS011;12054;53.662;10.126;2022-10-28T03:04:20;6.30;;;4.18;;
23747;SDS011;12054;53.662;10.126;2022-10-28T03:06:45;5.85;;;4.57;;
23747;SDS011;12054;53.662;10.126;2022-10-28T03:09:11;5.65;;;4.20;;
23747;SDS011;12054;53.662;10.126;2022-10-28T03:11:36;8.00;;;4.53;;
23747;SDS011;12054;53.662;10.126;2022-10-28T03:14:02;6.13;;;5.13;;
23747;SDS011;12054;53.662;10.126;2022-10-28T03:16:27;6.22;;;4.63;;
23747;SDS011;12054;53.662;10.126;2022-10-28T03:18:53;6.72;;;4.82;;
23747;SDS011;12054;53.662;10.126;2022-10-28T03:21:19;8.27;;;4.82;;
23747;SDS011;12054;53.662;10.126;2022-10-28T03:23:44;7.28;;;4.45;;
23747;SDS011;12054;53.662;10.126;2022-10-28T03:26:10;9.10;;;4.65;;
23747;SDS011;12054;53.662;10.126;2022-10-28T03:28:35;8.63;;;4.95;;
23747;SDS011;12054;53.662;10.126;2022-10-28T03:31:01;10.07;;;4.90;;
23747;SDS011;12054;53.662;10.126;2022-10-28T03:33:27;6.15;;;4.97;;
23747;SDS011;12054;53.662;10.126;2022-10-28T03:35:52;8.05;;;4.90;;
23747;SDS011;12054;53.662;10.126;2022-10-28T03:38:18;10.30;;;5.53;;
23747;SDS011;12054;53.662;10.126;2022-10-28T03:40:46;8.57;;;5.22;;
23747;SDS011;12054;53.662;10.126;2022-10-28T03:43:12;7.95;;;5.07;;
23747;SDS011;12054;53.662;10.126;2022-10-28T03:45:38;7.75;;;5.22;;
23747;SDS011;12054;53.662;10.126;2022-10-28T03:48:03;10.05;;;5.53;;
23747;SDS011;12054;53.662;10.126;2022-10-28T03:50:29;11.55;;;6.07;;
23747;SDS011;12054;53.662;10.126;2022-10-28T03:52:54;10.18;;;6.20;;
23747;SDS011;12054;53.662;10.126;2022-10-28T03:55:20;12.30;;;6.70;;
23747;SDS011;12054;53.662;10.126;2022-10-28T03:57:47;10.60;;;6.65;;
23747;SDS011;12054;53.662;10.126;2022-10-28T04:00:13;12.60;;;6.85;;
23747;SDS011;12054;53.662;10.126;2022-10-28T04:02:39;13.55;;;7.72;;
23747;SDS011;12054;53.662;10.126;2022-10-28T04:05:04;13.57;;;7.82;;
23747;SDS011;12054;53.662;10.126;2022-10-28T04:07:30;14.05;;;7.57;;
23747;SDS011;12054;53.662;10.126;2022-10-28T04:09:56;10.13;;;6.25;;
23747;SDS011;12054;53.662;10.126;2022-10-28T04:12:21;12.60;;;6.80;;
23747;SDS011;12054;53.662;10.126;2022-10-28T04:14:47;9.38;;;6.03;;
23747;SDS011;12054;53.662;10.126;2022-10-28T04:17:12;11.27;;;6.45;;
23747;SDS011;12054;53.662;10.126;2022-10-28T04:19:38;8.63;;;6.68;;
23747;SDS011;12054;53.662;10.126;2022-10-28T04:22:03;11.32;;;6.30;;
23747;SDS011;12054;53.662;10.126;2022-10-28T04:24:29;9.90;;;6.07;;
23747;SDS011;12054;53.662;10.126;2022-10-28T04:26:54;10.63;;;6.38;;
23747;SDS011;12054;53.662;10.126;2022-10-28T04:29:20;9.98;;;6.00;;
23747;SDS011;12054;53.662;10.126;2022-10-28T04:31:45;10.30;;;5.57;;
23747;SDS011;12054;53.662;10.126;2022-10-28T04:34:11;9.77;;;5.68;;
23747;SDS011;12054;53.662;10.126;2022-10-28T04:36:37;12.98;;;5.50;;
23747;SDS011;12054;53.662;10.126;2022-10-28T04:39:02;8.73;;;5.10;;
23747;SDS011;12054;53.662;10.126;2022-10-28T04:41:28;9.82;;;5.07;;
23747;SDS011;12054;53.662;10.126;2022-10-28T04:43:53;7.13;;;5.13;;
23747;SDS011;12054;53.662;10.126;2022-10-28T04:46:20;11.60;;;5.22;;
23747;SDS011;12054;53.662;10.126;2022-10-28T04:48:46;8.20;;;5.47;;
23747;SDS011;12054;53.662;10.126;2022-10-28T04:51:12;10.95;;;5.70;;
23747;SDS011;12054;53.662;10.126;2022-10-28T04:53:38;11.63;;;6.50;;
23747;SDS011;12054;53.662;10.126;2022-10-28T04:56:04;10.15;;;5.57;;
23747;SDS011;12054;53.662;10.126;2022-10-28T04:58:29;9.48;;;5.68;;
23747;SDS011;12054;53.662;10.126;2022-10-28T05:00:55;8.48;;;5.82;;
23747;SDS011;12054;53.662;10.126;2022-10-28T05:03:20;9.43;;;5.65;;
23747;SDS011;12054;53.662;10.126;2022-10-28T05:05:46;10.60;;;5.82;;
23747;SDS011;12054;53.662;10.126;2022-10-28T05:08:12;11.88;;;5.90;;
23747;SDS011;12054;53.662;10.126;2022-10-28T05:10:38;11.05;;;5.55;;
23747;SDS011;12054;53.662;10.126;2022-10-28T05:13:03;14.00;;;6.00;;
23747;SDS011;12054;53.662;10.126;2022-10-28T05:15:29;7.57;;;6.28;;
23747;SDS011;12054;53.662;10.126;2022-10-28T05:17:55;8.63;;;6.22;;
23747;SDS011;12054;53.662;10.126;2022-10-28T05:20:21;11.05;;;6.55;;
23747;SDS011;12054;53.662;10.126;2022-10-28T05:22:53;10.30;;;5.95;;
23747;SDS011;12054;53.662;10.126;2022-10-28T05:25:19;9.93;;;6.20;;
23747;SDS011;12054;53.662;10.126;2022-10-28T05:27:45;11.32;;;6.25;;
23747;SDS011;12054;53.662;10.126;2022-10-28T05:30:11;11.27;;;6.43;;
23747;SDS011;12054;53.662;10.126;2022-10-28T05:32:38;10.57;;;6.43;;
23747;SDS011;12054;53.662;10.126;2022-10-28T05:35:04;11.68;;;6.90;;
23747;SDS011;12054;53.662;10.126;2022-10-28T05:37:29;10.73;;;6.90;;
23747;SDS011;12054;53.662;10.126;2022-10-28T05:39:55;10.15;;;6.10;;
23747;SDS011;12054;53.662;10.126;2022-10-28T05:42:21;11.80;;;6.78;;
23747;SDS011;12054;53.662;10.126;2022-10-28T05:44:46;15.43;;;5.90;;
23747;SDS011;12054;53.662;10.126;2022-10-28T05:47:12;12.00;;;6.57;;
23747;SDS011;12054;53.662;10.126;2022-10-28T05:49:37;14.05;;;6.97;;
23747;SDS011;12054;53.662;10.126;2022-10-28T05:52:03;10.13;;;6.60;;
23747;SDS011;12054;53.662;10.126;2022-10-28T05:54:29;10.38;;;6.45;;
23747;SDS011;12054;53.662;10.126;2022-10-28T05:56:54;12.68;;;7.28;;
23747;SDS011;12054;53.662;10.126;2022-10-28T05:59:20;10.30;;;6.18;;
23747;SDS011;12054;53.662;10.126;2022-10-28T06:01:46;9.27;;;6.30;;
23747;SDS011;12054;53.662;10.126;2022-10-28T06:04:11;10.20;;;5.95;;
23747;SDS011;12054;53.662;10.126;2022-10-28T06:06:37;12.60;;;6.57;;
23747;SDS011;12054;53.662;10.126;2022-10-28T06:09:03;13.50;;;6.63;;
23747;SDS011;12054;53.662;10.126;2022-10-28T06:11:28;12.65;;;6.50;;
23747;SDS011;12054;53.662;10.126;2022-10-28T06:13:54;11.95;;;6.43;;
23747;SDS011;12054;53.662;10.126;2022-10-28T06:16:19;9.70;;;6.78;;
23747;SDS011;12054;53.662;10.126;2022-10-28T06:18:45;12.38;;;5.93;;
23747;SDS011;12054;53.662;10.126;2022-10-28T06:21:10;10.80;;;6.47;;
23747;SDS011;12054;53.662;10.126;2022-10-28T06:23:36;12.10;;;6.25;;
23747;SDS011;12054;53.662;10.126;2022-10-28T06:26:02;10.40;;;6.00;;
23747;SDS011;12054;53.662;10.126;2022-10-28T06:28:29;9.52;;;5.75;;
23747;SDS011;12054;53.662;10.126;2022-10-28T06:31:00;11.02;;;7.18;;
23747;SDS011;12054;53.662;10.126;2022-10-28T06:33:30;12.38;;;6.10;;
23747;SDS011;12054;53.662;10.126;2022-10-28T06:35:57;12.90;;;6.43;;
23747;SDS011;12054;53.662;10.126;2022-10-28T06:38:23;11.32;;;6.63;;
23747;SDS011;12054;53.662;10.126;2022-10-28T06:40:49;10.30;;;6.55;;
23747;SDS011;12054;53.662;10.126;2022-10-28T06:43:14;10.13;;;6.00;;
23747;SDS011;12054;53.662;10.126;2022-10-28T06:45:40;11.77;;;6.25;;
23747;SDS011;12054;53.662;10.126;2022-10-28T06:48:06;13.55;;;6.32;;
23747;SDS011;12054;53.662;10.126;2022-10-28T06:50:32;11.50;;;6.47;;
23747;SDS011;12054;53.662;10.126;2022-10-28T06:52:58;12.75;;;6.68;;
23747;SDS011;12054;53.662;10.126;2022-10-28T06:55:24;11.50;;;6.90;;
23747;SDS011;12054;53.662;10.126;2022-10-28T06:57:50;10.13;;;6.60;;
23747;SDS011;12054;53.662;10.126;2022-10-28T07:00:16;8.98;;;6.32;;
23747;SDS011;12054;53.662;10.126;2022-10-28T07:02:41;10.63;;;6.22;;
23747;SDS011;12054;53.662;10.126;2022-10-28T07:05:07;10.77;;;6.18;;
23747;SDS011;12054;53.662;10.126;2022-10-28T07:07:34;10.55;;;5.95;;
23747;SDS011;12054;53.662;10.126;2022-10-28T07:10:04;11.02;;;5.90;;
23747;SDS011;12054;53.662;10.126;2022-10-28T07:12:30;10.80;;;6.20;;
23747;SDS011;12054;53.662;10.126;2022-10-28T07:14:55;11.40;;;6.95;;
23747;SDS011;12054;53.662;10.126;2022-10-28T07:17:21;11.48;;;6.20;;
23747;SDS011;12054;53.662;10.126;2022-10-28T07:19:47;10.00;;;6.03;;
23747;SDS011;12054;53.662;10.126;2022-10-28T07:22:12;11.32;;;6.47;;
23747;SDS011;12054;53.662;10.126;2022-10-28T07:24:38;10.43;;;5.75;;
23747;SDS011;12054;53.662;10.126;2022-10-28T07:27:03;16.80;;;6.70;;
23747;SDS011;12054;53.662;10.126;2022-10-28T07:29:29;13.10;;;6.50;;
23747;SDS011;12054;53.662;10.126;2022-10-28T07:31:54;11.73;;;6.05;;
23747;SDS011;12054;53.662;10.126;2022-10-28T07:34:20;8.65;;;5.95;;
23747;SDS011;12054;53.662;10.126;2022-10-28T07:36:49;12.70;;;6.43;;
23747;SDS011;12054;53.662;10.126;2022-10-28T07:39:16;12.25;;;6.07;;
23747;SDS011;12054;53.662;10.126;2022-10-28T07:41:42;12.38;;;6.20;;
23747;SDS011;12054;53.662;10.126;2022-10-28T07:44:07;8.32;;;5.85;;
23747;SDS011;12054;53.662;10.126;2022-10-28T07:46:33;10.32;;;5.80;;
23747;SDS011;12054;53.662;10.126;2022-10-28T07:48:58;10.25;;;5.93;;
23747;SDS011;12054;53.662;10.126;2022-10-28T07:51:24;10.32;;;6.43;;
23747;SDS011;12054;53.662;10.126;2022-10-28T07:53:50;13.45;;;5.25;;
23747;SDS011;12054;53.662;10.126;2022-10-28T07:56:16;14.98;;;4.88;;
23747;SDS011;12054;53.662;10.126;2022-10-28T07:58:42;10.77;;;5.35;;
23747;SDS011;12054;53.662;10.126;2022-10-28T08:01:09;7.20;;;4.97;;
23747;SDS011;12054;53.662;10.126;2022-10-28T08:03:36;9.00;;;5.00;;
23747;SDS011;12054;53.662;10.126;2022-10-28T08:06:06;12.52;;;4.63;;
23747;SDS011;12054;53.662;10.126;2022-10-28T08:08:37;9.05;;;4.78;;
23747;SDS011;12054;53.662;10.126;2022-10-28T08:13:43;16.40;;;5.15;;
23747;SDS011;12054;53.662;10.126;2022-10-28T08:16:08;8.95;;;4.45;;
23747;SDS011;12054;53.662;10.126;2022-10-28T08:18:35;10.02;;;4.43;;
23747;SDS011;12054;53.662;10.126;2022-10-28T08:21:02;6.30;;;4.28;;
23747;SDS011;12054;53.662;10.126;2022-10-28T08:23:29;9.13;;;4.57;;
23747;SDS011;12054;53.662;10.126;2022-10-28T08:25:54;8.65;;;4.50;;
23747;SDS011;12054;53.662;10.126;2022-10-28T08:28:20;10.15;;;4.55;;
23747;SDS011;12054;53.662;10.126;2022-10-28T08:30:47;11.48;;;4.32;;
23747;SDS011;12054;53.662;10.126;2022-10-28T08:33:12;10.13;;;4.38;;
23747;SDS011;12054;53.662;10.126;2022-10-28T08:35:38;10.05;;;4.20;;
23747;SDS011;12054;53.662;10.126;2022-10-28T08:38:04;11.68;;;4.50;;
23747;SDS011;12054;53.662;10.126;2022-10-28T08:40:36;11.10;;;4.60;;
23747;SDS011;12054;53.662;10.126;2022-10-28T08:43:26;7.90;;;4.38;;
23747;SDS011;12054;53.662;10.126;2022-10-28T08:48:37;9.85;;;3.88;;
23747;SDS011;12054;53.662;10.126;2022-10-28T08:51:11;7.60;;;4.13;;
23747;SDS011;12054;53.662;10.126;2022-10-28T08:53:51;6.28;;;3.88;;
23747;SDS011;12054;53.662;10.126;2022-10-28T08:56:30;9.10;;;4.25;;
23747;SDS011;12054;53.662;10.126;2022-10-28T08:59:00;9.95;;;4.13;;
23747;SDS011;12054;53.662;10.126;2022-10-28T09:07:12;8.32;;;4.05;;
23747;SDS011;12054;53.662;10.126;2022-10-28T09:09:45;7.32;;;4.03;;
23747;SDS011;12054;53.662;10.126;2022-10-28T09:15:14;9.18;;;4.43;;
23747;SDS011;12054;53.662;10.126;2022-10-28T09:18:07;6.00;;;3.70;;
23747;SDS011;12054;53.662;10.126;2022-10-28T09:20:51;6.97;;;4.15;;
23747;SDS011;12054;53.662;10.126;2022-10-28T09:26:01;10.35;;;4.43;;
23747;SDS011;12054;53.662;10.126;2022-10-28T09:31:57;15.90;;;4.53;;
23747;SDS011;12054;53.662;10.126;2022-10-28T09:34:39;7.10;;;3.70;;
23747;SDS011;12054;53.662;10.126;2022-10-28T09:37:28;12.48;;;4.03;;
23747;SDS011;12054;53.662;10.126;2022-10-28T09:40:02;9.60;;;3.88;;
23747;SDS011;12054;53.662;10.126;2022-10-28T09:42:43;13.30;;;4.07;;
23747;SDS011;12054;53.662;10.126;2022-10-28T09:45:24;10.68;;;3.53;;
23747;SDS011;12054;53.662;10.126;2022-10-28T09:47:57;5.97;;;3.75;;
23747;SDS011;12054;53.662;10.126;2022-10-28T09:50:32;8.63;;;4.15;;
23747;SDS011;12054;53.662;10.126;2022-10-28T09:55:45;9.27;;;4.00;;
23747;SDS011;12054;53.662;10.126;2022-10-28T09:58:11;12.90;;;4.22;;
23747;SDS011;12054;53.662;10.126;2022-10-28T10:00:37;8.63;;;4.28;;
23747;SDS011;12054;53.662;10.126;2022-10-28T10:03:03;8.50;;;3.20;;
23747;SDS011;12054;53.662;10.126;2022-10-28T10:05:29;7.75;;;3.70;;
23747;SDS011;12054;53.662;10.126;2022-10-28T10:07:59;9.32;;;3.60;;
23747;SDS011;12054;53.662;10.126;2022-10-28T10:13:08;8.13;;;3.22;;
23747;SDS011;12054;53.662;10.126;2022-10-28T10:15:36;12.40;;;3.75;;
23747;SDS011;12054;53.662;10.126;2022-10-28T10:18:19;8.43;;;3.55;;
23747;SDS011;12054;53.662;10.126;2022-10-28T10:20:54;8.88;;;3.60;;
23747;SDS011;12054;53.662;10.126;2022-10-28T10:23:31;8.25;;;3.40;;
23747;SDS011;12054;53.662;10.126;2022-10-28T10:26:00;8.13;;;4.10;;
23747;SDS011;12054;53.662;10.126;2022-10-28T10:28:35;9.98;;;3.72;;
23747;SDS011;12054;53.662;10.126;2022-10-28T10:31:06;7.50;;;3.60;;
23747;SDS011;12054;53.662;10.126;2022-10-28T10:33:39;9.73;;;4.03;;
23747;SDS011;12054;53.662;10.126;2022-10-28T10:38:34;10.30;;;4.07;;
23747;SDS011;12054;53.662;10.126;2022-10-28T10:41:01;8.30;;;3.88;;
23747;SDS011;12054;53.662;10.126;2022-10-28T10:43:30;8.75;;;3.53;;
23747;SDS011;12054;53.662;10.126;2022-10-28T10:46:13;12.38;;;4.03;;
23747;SDS011;12054;53.662;10.126;2022-10-28T10:48:41;10.98;;;4.00;;
23747;SDS011;12054;53.662;10.126;2022-10-28T10:51:10;13.05;;;3.88;;
23747;SDS011;12054;53.662;10.126;2022-10-28T10:53:47;6.25;;;3.22;;
23747;SDS011;12054;53.662;10.126;2022-10-28T10:56:21;7.47;;;3.70;;
23747;SDS011;12054;53.662;10.126;2022-10-28T10:58:52;12.90;;;4.03;;
23747;SDS011;12054;53.662;10.126;2022-10-28T11:01:20;14.05;;;4.40;;
23747;SDS011;12054;53.662;10.126;2022-10-28T11:03:53;8.45;;;3.70;;
23747;SDS011;12054;53.662;10.126;2022-10-28T11:06:27;11.43;;;4.43;;
23747;SDS011;12054;53.662;10.126;2022-10-28T11:08:58;7.55;;;3.72;;
23747;SDS011;12054;53.662;10.126;2022-10-28T11:11:39;11.85;;;4.20;;
23747;SDS011;12054;53.662;10.126;2022-10-28T11:14:06;7.63;;;3.40;;
23747;SDS011;12054;53.662;10.126;2022-10-28T11:19:14;11.18;;;4.45;;
23747;SDS011;12054;53.662;10.126;2022-10-28T11:21:57;7.80;;;4.13;;
23747;SDS011;12054;53.662;10.126;2022-10-28T11:25:28;9.55;;;3.83;;
23747;SDS011;12054;53.662;10.126;2022-10-28T11:30:19;10.35;;;4.00;;
23747;SDS011;12054;53.662;10.126;2022-10-28T11:32:53;10.07;;;3.80;;
23747;SDS011;12054;53.662;10.126;2022-10-28T11:35:41;14.68;;;4.80;;
23747;SDS011;12054;53.662;10.126;2022-10-28T11:38:47;12.02;;;3.70;;
23747;SDS011;12054;53.662;10.126;2022-10-28T11:44:17;11.00;;;3.80;;
23747;SDS011;12054;53.662;10.126;2022-10-28T11:47:00;9.15;;;3.20;;
23747;SDS011;12054;53.662;10.126;2022-10-28T11:52:52;12.18;;;3.45;;
23747;SDS011;12054;53.662;10.126;2022-10-28T11:55:34;10.60;;;3.60;;
23747;SDS011;12054;53.662;10.126;2022-10-28T11:58:17;6.50;;;2.95;;
23747;SDS011;12054;53.662;10.126;2022-10-28T12:01:05;10.60;;;3.92;;
23747;SDS011;12054;53.662;10.126;2022-10-28T12:03:51;13.23;;;3.33;;
23747;SDS011;12054;53.662;10.126;2022-10-28T12:09:45;10.27;;;3.65;;
23747;SDS011;12054;53.662;10.126;2022-10-28T12:18:01;7.28;;;3.05;;
23747;SDS011;12054;53.662;10.126;2022-10-28T12:20:43;10.43;;;3.10;;
23747;SDS011;12054;53.662;10.126;2022-10-28T12:23:17;14.52;;;4.13;;
23747;SDS011;12054;53.662;10.126;2022-10-28T12:25:46;11.23;;;3.38;;
23747;SDS011;12054;53.662;10.126;2022-10-28T12:28:17;9.50;;;3.45;;
23747;SDS011;12054;53.662;10.126;2022-10-28T12:30:47;12.25;;;3.50;;
23747;SDS011;12054;53.662;10.126;2022-10-28T12:33:26;8.73;;;3.63;;
23747;SDS011;12054;53.662;10.126;2022-10-28T12:41:20;11.43;;;3.22;;
23747;SDS011;12054;53.662;10.126;2022-10-28T12:43:54;10.40;;;3.45;;
23747;SDS011;12054;53.662;10.126;2022-10-28T12:49:35;12.55;;;3.60;;
23747;SDS011;12054;53.662;10.126;2022-10-28T12:52:29;9.65;;;3.60;;
23747;SDS011;12054;53.662;10.126;2022-10-28T12:57:43;10.00;;;3.92;;
23747;SDS011;12054;53.662;10.126;2022-10-28T13:00:18;8.25;;;3.22;;
23747;SDS011;12054;53.662;10.126;2022-10-28T13:02:50;10.73;;;3.58;;
23747;SDS011;12054;53.662;10.126;2022-10-28T13:05:26;10.45;;;3.65;;
23747;SDS011;12054;53.662;10.126;2022-10-28T13:11:11;10.25;;;3.20;;
23747;SDS011;12054;53.662;10.126;2022-10-28T13:13:54;12.98;;;3.60;;
23747;SDS011;12054;53.662;10.126;2022-10-28T13:24:57;10.07;;;3.55;;
23747;SDS011;12054;53.662;10.126;2022-10-28T13:27:33;10.25;;;3.50;;
23747;SDS011;12054;53.662;10.126;2022-10-28T13:29:59;12.60;;;3.17;;
23747;SDS011;12054;53.662;10.126;2022-10-28T13:32:32;9.93;;;3.75;;
23747;SDS011;12054;53.662;10.126;2022-10-28T13:35:00;11.85;;;3.10;;
23747;SDS011;12054;53.662;10.126;2022-10-28T13:37:38;10.82;;;3.88;;
23747;SDS011;12054;53.662;10.126;2022-10-28T13:40:05;11.23;;;3.75;;
23747;SDS011;12054;53.662;10.126;2022-10-28T13:42:52;13.02;;;4.10;;
23747;SDS011;12054;53.662;10.126;2022-10-28T13:56:28;9.32;;;4.05;;
23747;SDS011;12054;53.662;10.126;2022-10-28T14:04:29;11.90;;;3.92;;
23747;SDS011;12054;53.662;10.126;2022-10-28T14:07:04;14.40;;;3.75;;
23747;SDS011;12054;53.662;10.126;2022-10-28T14:09:33;12.38;;;4.00;;
23747;SDS011;12054;53.662;10.126;2022-10-28T14:12:04;7.20;;;3.63;;
23747;SDS011;12054;53.662;10.126;2022-10-28T14:15:01;11.35;;;4.20;;
23747;SDS011;12054;53.662;10.126;2022-10-28T14:17:43;9.05;;;3.72;;
23747;SDS011;12054;53.662;10.126;2022-10-28T14:20:27;10.23;;;3.35;;
23747;SDS011;12054;53.662;10.126;2022-10-28T14:22:58;9.68;;;3.70;;
23747;SDS011;12054;53.662;10.126;2022-10-28T14:49:25;12.98;;;4.30;;
23747;SDS011;12054;53.662;10.126;2022-10-28T14:51:54;10.95;;;3.83;;
23747;SDS011;12054;53.662;10.126;2022-10-28T14:54:31;12.18;;;4.30;;
23747;SDS011;12054;53.662;10.126;2022-10-28T14:57:01;11.50;;;4.07;;
23747;SDS011;12054;53.662;10.126;2022-10-28T14:59:38;11.45;;;3.90;;
23747;SDS011;12054;53.662;10.126;2022-10-28T15:02:17;13.30;;;4.13;;
23747;SDS011;12054;53.662;10.126;2022-10-28T15:04:59;10.82;;;3.97;;
23747;SDS011;12054;53.662;10.126;2022-10-28T15:07:28;8.85;;;3.67;;
23747;SDS011;12054;53.662;10.126;2022-10-28T15:09:55;10.02;;;4.10;;
23747;SDS011;12054;53.662;10.126;2022-10-28T15:12:21;12.63;;;5.30;;
23747;SDS011;12054;53.662;10.126;2022-10-28T15:14:51;10.43;;;3.83;;
23747;SDS011;12054;53.662;10.126;2022-10-28T15:17:25;9.70;;;4.55;;
23747;SDS011;12054;53.662;10.126;2022-10-28T15:19:53;11.32;;;4.40;;
23747;SDS011;12054;53.662;10.126;2022-10-28T15:22:27;15.82;;;4.38;;
23747;SDS011;12054;53.662;10.126;2022-10-28T15:25:05;10.65;;;4.55;;
23747;SDS011;12054;53.662;10.126;2022-10-28T15:27:37;12.85;;;4.38;;
23747;SDS011;12054;53.662;10.126;2022-10-28T15:30:17;13.98;;;4.47;;
23747;SDS011;12054;53.662;10.126;2022-10-28T15:32:48;17.55;;;4.95;;
23747;SDS011;12054;53.662;10.126;2022-10-28T15:37:53;12.20;;;4.05;;
23747;SDS011;12054;53.662;10.126;2022-10-28T15:40:21;12.50;;;4.35;;
23747;SDS011;12054;53.662;10.126;2022-10-28T15:45:31;11.88;;;4.57;;
23747;SDS011;12054;53.662;10.126;2022-10-28T15:47:59;10.68;;;4.57;;
23747;SDS011;12054;53.662;10.126;2022-10-28T15:55:34;11.00;;;4.72;;
23747;SDS011;12054;53.662;10.126;2022-10-28T15:58:32;11.18;;;5.40;;
23747;SDS011;12054;53.662;10.126;2022-10-28T16:00:50;13.55;;;5.03;;
23747;SDS011;12054;53.662;10.126;2022-10-28T16:03:25;17.42;;;5.40;;
23747;SDS011;12054;53.662;10.126;2022-10-28T16:05:52;12.73;;;5.35;;
23747;SDS011;12054;53.662;10.126;2022-10-28T16:08:21;16.13;;;5.30;;
23747;SDS011;12054;53.662;10.126;2022-10-28T16:10:52;15.05;;;5.07;;
23747;SDS011;12054;53.662;10.126;2022-10-28T16:13:26;18.00;;;5.60;;
23747;SDS011;12054;53.662;10.126;2022-10-28T16:18:47;13.05;;;5.07;;
23747;SDS011;12054;53.662;10.126;2022-10-28T16:21:17;14.65;;;5.35;;
23747;SDS011;12054;53.662;10.126;2022-10-28T16:23:50;16.27;;;5.82;;
23747;SDS011;12054;53.662;10.126;2022-10-28T16:26:24;18.48;;;5.68;;
23747;SDS011;12054;53.662;10.126;2022-10-28T16:28:50;14.93;;;5.57;;
23747;SDS011;12054;53.662;10.126;2022-10-28T16:31:29;16.08;;;6.00;;
23747;SDS011;12054;53.662;10.126;2022-10-28T16:33:56;15.32;;;5.78;;
23747;SDS011;12054;53.662;10.126;2022-10-28T16:36:23;12.57;;;5.85;;
23747;SDS011;12054;53.662;10.126;2022-10-28T16:38:48;15.25;;;6.10;;
23747;SDS011;12054;53.662;10.126;2022-10-28T16:41:15;12.60;;;5.80;;
23747;SDS011;12054;53.662;10.126;2022-10-28T16:43:42;19.45;;;8.05;;
23747;SDS011;12054;53.662;10.126;2022-10-28T16:46:08;15.02;;;6.55;;
23747;SDS011;12054;53.662;10.126;2022-10-28T16:48:38;14.25;;;6.65;;
23747;SDS011;12054;53.662;10.126;2022-10-28T16:51:05;17.30;;;6.45;;
23747;SDS011;12054;53.662;10.126;2022-10-28T16:53:36;14.27;;;6.63;;
23747;SDS011;12054;53.662;10.126;2022-10-28T16:56:03;15.70;;;6.43;;
23747;SDS011;12054;53.662;10.126;2022-10-28T16:58:29;17.20;;;6.07;;
23747;SDS011;12054;53.662;10.126;2022-10-28T17:00:55;14.20;;;6.90;;
23747;SDS011;12054;53.662;10.126;2022-10-28T17:03:21;11.77;;;6.55;;
23747;SDS011;12054;53.662;10.126;2022-10-28T17:05:46;11.98;;;6.55;;
23747;SDS011;12054;53.662;10.126;2022-10-28T17:08:12;16.75;;;6.72;;
23747;SDS011;12054;53.662;10.126;2022-10-28T17:10:38;17.55;;;8.15;;
23747;SDS011;12054;53.662;10.126;2022-10-28T17:13:11;15.25;;;6.43;;
23747;SDS011;12054;53.662;10.126;2022-10-28T17:15:38;13.30;;;7.28;;
23747;SDS011;12054;53.662;10.126;2022-10-28T17:18:05;15.30;;;7.00;;
23747;SDS011;12054;53.662;10.126;2022-10-28T17:20:31;13.65;;;6.90;;
23747;SDS011;12054;53.662;10.126;2022-10-28T17:22:57;14.52;;;7.35;;
23747;SDS011;12054;53.662;10.126;2022-10-28T17:25:23;19.27;;;7.57;;